Time;durP1;ratioP1;P1;durP2;ratioP2;P2;SDS_P1;SDS_P2;PMS_P1;PMS_P2;Temp;Humidity;BMP_temperature;BMP_pressure;BME280_temperature;BME280_humidity;BME280_pressure;Samples;Min_cycle;Max_cycle;Signal;HPM_P1;HPM_P2
2021/08/21 00:02:18;;;;;;;;;;;;;;;;;;4922683;28;20348;-84
2021/08/21 00:04:45;;;;;;;;;;;;;;;;;;4921180;28;21518;-81
2021/08/21 00:07:11;;;;;;;;;;;;;;;;;;4925355;28;19970;-84
2021/08/21 00:09:37;;;;;;;;;;;;;;;;;;4917913;28;19961;-84
2021/08/21 00:12:03;;;;;;;;;;;;;;;;;;4933996;28;20743;-83
2021/08/21 00:14:29;;;;;;;;;;;;;;;;;;4921866;28;19922;-83
2021/08/21 00:16:55;;;;;;;;;;;;;;;;;;4929763;28;19926;-84
2021/08/21 00:19:21;;;;;;;;;;;;;;;;;;4922644;28;20032;-82
2021/08/21 00:21:48;;;;;;;;;;;;;;;;;;4923938;28;20038;-83
2021/08/21 00:24:14;;;;;;;;;;;;;;;;;;4922583;28;19977;-82
2021/08/21 00:26:40;;;;;;;;;;;;;;;;;;4924043;28;20380;-83
2021/08/21 00:29:06;;;;;;;;;;;;;;;;;;4924796;28;19919;-84
2021/08/21 00:31:32;;;;;;;;;;;;;;;;;;4920065;28;19962;-84
2021/08/21 00:33:59;;;;;;;;;;;;;;;;;;4927475;28;19957;-84
2021/08/21 00:36:25;;;;;;;;;;;;;;;;;;4920883;28;20241;-83
2021/08/21 00:38:51;;;;;;;;;;;;;;;;;;4929030;28;19914;-84
2021/08/21 00:41:17;;;;;;;;;;;;;;;;;;4931897;28;19958;-84
2021/08/21 00:43:43;;;;;;;;;;;;;;;;;;4931582;28;19946;-84
2021/08/21 00:46:09;;;;;;;;;;;;;;;;;;4917499;28;19958;-83
2021/08/21 00:48:35;;;;;;;;;;;;;;;;;;4925860;28;20659;-83
2021/08/21 00:51:02;;;;;;;;;;;;;;;;;;4919867;28;19925;-83
2021/08/21 00:53:28;;;;;;;;;;;;;;;;;;4919016;28;20025;-83
2021/08/21 00:55:54;;;;;;;;;;;;;;;;;;4924143;28;19919;-82
2021/08/21 00:58:20;;;;;;;;;;;;;;;;;;4921742;28;20001;-82
2021/08/21 01:00:46;;;;;;;;;;;;;;;;;;4923074;28;20988;-82
2021/08/21 01:03:12;;;;;;;;;;;;;;;;;;4922023;28;19922;-82
2021/08/21 01:05:38;;;;;;;;;;;;;;;;;;4921224;28;20000;-82
2021/08/21 01:08:04;;;;;;;;;;;;;;;;;;4920394;28;19918;-82
2021/08/21 01:10:30;;;;;;;;;;;;;;;;;;4922970;28;19922;-81
2021/08/21 01:12:56;;;;;;;;;;;;;;;;;;4921788;28;19934;-82
2021/08/21 01:15:22;;;;;;;;;;;;;;;;;;4927260;28;20061;-82
2021/08/21 01:17:48;;;;;;;;;;;;;;;;;;4919839;28;20068;-82
2021/08/21 01:20:14;;;;;;;;;;;;;;;;;;4927528;28;19953;-81
2021/08/21 01:22:40;;;;;;;;;;;;;;;;;;4916329;28;20406;-82
2021/08/21 01:25:06;;;;;;;;;;;;;;;;;;4928480;28;19927;-82
2021/08/21 01:27:32;;;;;;;;;;;;;;;;;;4922622;28;20033;-83
2021/08/21 01:29:58;;;;;;;;;;;;;;;;;;4924252;28;19929;-82
2021/08/21 01:32:27;;;;;;;;;;;;;;;;;;4927816;28;19923;-82
2021/08/21 01:34:53;;;;;;;;;;;;;;;;;;4928671;28;19922;-84
2021/08/21 01:37:19;;;;;;;;;;;;;;;;;;4928152;28;19974;-84
2021/08/21 01:39:45;;;;;;;;;;;;;;;;;;4925409;28;19958;-83
2021/08/21 01:42:11;;;;;;;;;;;;;;;;;;4926632;28;19922;-84
2021/08/21 01:44:37;;;;;;;;;;;;;;;;;;4924028;28;20512;-84
2021/08/21 01:47:03;;;;;;;;;;;;;;;;;;4940255;28;19919;-83
2021/08/21 01:49:29;;;;;;;;;;;;;;;;;;4949351;28;19950;-83
2021/08/21 01:51:56;;;;;;;;;;;;;;;;;;4937129;28;20393;-84
2021/08/21 01:54:22;;;;;;;;;;;;;;;;;;4938521;28;20282;-83
2021/08/21 01:56:48;;;;;;;;;;;;;;;;;;4923784;28;19922;-85
2021/08/21 01:59:14;;;;;;;;;;;;;;;;;;4927805;28;19915;-84
2021/08/21 02:01:40;;;;;;;;;;;;;;;;;;4927457;28;19922;-84
2021/08/21 02:04:06;;;;;;;;;;;;;;;;;;4931036;28;19929;-84
2021/08/21 02:06:32;;;;;;;;;;;;;;;;;;4927308;28;19925;-81
2021/08/21 02:08:58;;;;;;;;;;;;;;;;;;4929376;28;20072;-84
2021/08/21 02:11:24;;;;;;;;;;;;;;;;;;4935109;28;19922;-83
2021/08/21 02:13:50;;;;;;;;;;;;;;;;;;4925263;28;19922;-83
2021/08/21 02:16:16;;;;;;;;;;;;;;;;;;4933538;28;20330;-84
2021/08/21 02:18:42;;;;;;;;;;;;;;;;;;4919430;28;19942;-83
2021/08/21 02:21:08;;;;;;;;;;;;;;;;;;4920496;28;19961;-82
2021/08/21 02:23:34;;;;;;;;;;;;;;;;;;4921741;28;19923;-83
2021/08/21 02:26:00;;;;;;;;;;;;;;;;;;4928139;28;19922;-83
2021/08/21 02:28:26;;;;;;;;;;;;;;;;;;4927180;28;19922;-83
2021/08/21 02:30:52;;;;;;;;;;;;;;;;;;4927574;28;19957;-83
2021/08/21 02:33:18;;;;;;;;;;;;;;;;;;4930130;28;19929;-83
2021/08/21 02:35:44;;;;;;;;;;;;;;;;;;4921216;28;19972;-83
2021/08/21 02:38:10;;;;;;;;;;;;;;;;;;4928998;28;19934;-84
2021/08/21 02:40:36;;;;;;;;;;;;;;;;;;4923420;28;19926;-83
2021/08/21 02:43:01;;;;;;;;;;;;;;;;;;4937166;28;19922;-82
2021/08/21 02:45:28;;;;;;;;;;;;;;;;;;4924935;28;19933;-83
2021/08/21 02:47:54;;;;;;;;;;;;;;;;;;4937813;28;20065;-84
2021/08/21 02:50:20;;;;;;;;;;;;;;;;;;4928062;28;21226;-83
2021/08/21 02:52:46;;;;;;;;;;;;;;;;;;4926255;28;19922;-84
2021/08/21 02:55:12;;;;;;;;;;;;;;;;;;4927806;28;20064;-84
2021/08/21 02:57:38;;;;;;;;;;;;;;;;;;4926982;28;20049;-83
2021/08/21 03:00:04;;;;;;;;;;;;;;;;;;4936970;28;20575;-83
2021/08/21 03:02:30;;;;;;;;;;;;;;;;;;4925432;28;19923;-82
2021/08/21 03:04:56;;;;;;;;;;;;;;;;;;4945737;28;19925;-83
2021/08/21 03:07:22;;;;;;;;;;;;;;;;;;4931247;28;19922;-83
2021/08/21 03:09:48;;;;;;;;;;;;;;;;;;4925032;28;20025;-82
2021/08/21 03:12:14;;;;;;;;;;;;;;;;;;4926735;28;19933;-82
2021/08/21 03:14:40;;;;;;;;;;;;;;;;;;4924100;28;19922;-83
2021/08/21 03:17:11;;;;;;;;;;;;;;;;;;4923386;28;19929;-83
2021/08/21 03:19:37;;;;;;;;;;;;;;;;;;4925629;28;19954;-82
2021/08/21 03:22:03;;;;;;;;;;;;;;;;;;4923678;28;19937;-81
2021/08/21 03:24:29;;;;;;;;;;;;;;;;;;4921407;28;20318;-82
2021/08/21 03:26:55;;;;;;;;;;;;;;;;;;4929332;28;19926;-83
2021/08/21 03:29:21;;;;;;;;;;;;;;;;;;4927508;28;20461;-82
2021/08/21 03:31:47;;;;;;;;;;;;;;;;;;4925160;28;21216;-82
2021/08/21 03:34:13;;;;;;;;;;;;;;;;;;4925398;28;19918;-84
2021/08/21 03:36:39;;;;;;;;;;;;;;;;;;4928141;28;19925;-83
2021/08/21 03:39:05;;;;;;;;;;;;;;;;;;4922882;28;19918;-82
2021/08/21 03:41:31;;;;;;;;;;;;;;;;;;4924695;28;19929;-83
2021/08/21 03:43:57;;;;;;;;;;;;;;;;;;4925309;28;19918;-82
2021/08/21 03:46:23;;;;;;;;;;;;;;;;;;4922027;28;20382;-82
2021/08/21 03:48:49;;;;;;;;;;;;;;;;;;4918867;28;19958;-82
2021/08/21 03:51:15;;;;;;;;;;;;;;;;;;4927059;28;20274;-83
2021/08/21 03:53:41;;;;;;;;;;;;;;;;;;4919924;28;20635;-83
2021/08/21 03:56:07;;;;;;;;;;;;;;;;;;4926269;28;19918;-82
2021/08/21 03:58:33;;;;;;;;;;;;;;;;;;4925225;28;19978;-83
2021/08/21 04:00:58;;;;;;;;;;;;;;;;;;4923004;28;19918;-83
2021/08/21 04:03:24;;;;;;;;;;;;;;;;;;4926440;28;19922;-83
2021/08/21 04:05:50;;;;;;;;;;;;;;;;;;4918875;28;19944;-84
2021/08/21 04:08:17;;;;;;;;;;;;;;;;;;4923331;28;20558;-83
2021/08/21 04:10:43;;;;;;;;;;;;;;;;;;4918669;28;20017;-82
2021/08/21 04:13:09;;;;;;;;;;;;;;;;;;4925851;28;19918;-83
2021/08/21 04:15:35;;;;;;;;;;;;;;;;;;4920179;28;19929;-83
2021/08/21 04:18:00;;;;;;;;;;;;;;;;;;4925289;28;19962;-82
2021/08/21 04:20:26;;;;;;;;;;;;;;;;;;4922627;28;20278;-83
2021/08/21 04:22:52;;;;;;;;;;;;;;;;;;4918251;28;19930;-83
2021/08/21 04:25:18;;;;;;;;;;;;;;;;;;4922971;28;19997;-82
2021/08/21 04:27:45;;;;;;;;;;;;;;;;;;4918333;28;19919;-82
2021/08/21 04:30:11;;;;;;;;;;;;;;;;;;4919526;28;19957;-82
2021/08/21 04:32:37;;;;;;;;;;;;;;;;;;4921713;28;19915;-83
2021/08/21 04:35:03;;;;;;;;;;;;;;;;;;4921681;28;19918;-83
2021/08/21 04:37:29;;;;;;;;;;;;;;;;;;4917799;28;19919;-83
2021/08/21 04:39:55;;;;;;;;;;;;;;;;;;4919781;28;19922;-83
2021/08/21 04:42:21;;;;;;;;;;;;;;;;;;4923891;28;20021;-81
2021/08/21 04:44:47;;;;;;;;;;;;;;;;;;4915599;28;19925;-82
2021/08/21 04:47:13;;;;;;;;;;;;;;;;;;4924352;28;20713;-83
2021/08/21 04:49:39;;;;;;;;;;;;;;;;;;4916226;28;19973;-83
2021/08/21 04:52:05;;;;;;;;;;;;;;;;;;4923190;28;19982;-83
2021/08/21 04:54:31;;;;;;;;;;;;;;;;;;4916777;28;20400;-83
2021/08/21 04:56:57;;;;;;;;;;;;;;;;;;4924462;28;19918;-83
2021/08/21 04:59:23;;;;;;;;;;;;;;;;;;4924315;28;19930;-83
2021/08/21 05:01:49;;;;;;;;;;;;;;;;;;4923606;28;21364;-83
2021/08/21 05:04:15;;;;;;;;;;;;;;;;;;4935971;28;20004;-83
2021/08/21 05:06:41;;;;;;;;;;;;;;;;;;4922145;28;19929;-83
2021/08/21 05:09:07;;;;;;;;;;;;;;;;;;4933755;28;19919;-83
2021/08/21 05:11:33;;;;;;;;;;;;;;;;;;4921733;28;20378;-83
2021/08/21 05:13:59;;;;;;;;;;;;;;;;;;4929733;28;20017;-83
2021/08/21 05:16:25;;;;;;;;;;;;;;;;;;4924087;28;19925;-82
2021/08/21 05:18:56;;;;;;;;;;;;;;;;;;4924871;28;20306;-83
2021/08/21 05:21:28;;;;;;;;;;;;;;;;;;4928377;28;20000;-83
2021/08/21 05:23:54;;;;;;;;;;;;;;;;;;4927912;28;19918;-83
2021/08/21 05:26:20;;;;;;;;;;;;;;;;;;4931886;28;19961;-82
2021/08/21 05:28:46;;;;;;;;;;;;;;;;;;4922459;28;19930;-83
2021/08/21 05:31:12;;;;;;;;;;;;;;;;;;4928690;28;19918;-82
2021/08/21 05:33:38;;;;;;;;;;;;;;;;;;4922523;28;20362;-83
2021/08/21 05:36:04;;;;;;;;;;;;;;;;;;4931299;28;20614;-83
2021/08/21 05:38:30;;;;;;;;;;;;;;;;;;4919553;28;20005;-82
2021/08/21 05:40:56;;;;;;;;;;;;;;;;;;4925247;28;19929;-82
2021/08/21 05:43:23;;;;;;;;;;;;;;;;;;4928165;28;20017;-83
2021/08/21 05:45:48;;;;;;;;;;;;;;;;;;4920595;28;19925;-83
2021/08/21 05:48:14;;;;;;;;;;;;;;;;;;4934677;28;20320;-83
2021/08/21 05:50:41;;;;;;;;;;;;;;;;;;4918764;28;19919;-83
2021/08/21 05:53:07;;;;;;;;;;;;;;;;;;4930347;28;19918;-83
2021/08/21 05:55:33;;;;;;;;;;;;;;;;;;4905122;28;19927;-82
2021/08/21 05:57:59;;;;;;;;;;;;;;;;;;4907021;29;19970;-83
2021/08/21 06:00:25;;;;;;;;;;;;;;;;;;4906864;28;19922;-83
2021/08/21 06:02:51;;;;;;;;;;;;;;;;;;4908814;28;20012;-83
2021/08/21 06:05:17;;;;;;;;;;;;;;;;;;4903145;28;19929;-83
2021/08/21 06:07:43;;;;;;;;;;;;;;;;;;4910534;28;19915;-82
2021/08/21 06:10:09;;;;;;;;;;;;;;;;;;4910804;28;20509;-83
2021/08/21 06:12:35;;;;;;;;;;;;;;;;;;4905103;28;20002;-84
2021/08/21 06:15:01;;;;;;;;;;;;;;;;;;4912896;28;20374;-83
2021/08/21 06:17:27;;;;;;;;;;;;;;;;;;4905268;28;19923;-83
2021/08/21 06:19:53;;;;;;;;;;;;;;;;;;4930922;28;19951;-83
2021/08/21 06:22:19;;;;;;;;;;;;;;;;;;4916969;28;19989;-83
2021/08/21 06:24:45;;;;;;;;;;;;;;;;;;4915493;28;20886;-84
2021/08/21 06:27:11;;;;;;;;;;;;;;;;;;4917159;28;19925;-84
2021/08/21 06:29:37;;;;;;;;;;;;;;;;;;4910228;28;19955;-84
2021/08/21 06:32:03;;;;;;;;;;;;;;;;;;4914463;28;19919;-83
2021/08/21 06:34:29;;;;;;;;;;;;;;;;;;4911463;28;20017;-84
2021/08/21 06:36:55;;;;;;;;;;;;;;;;;;4911566;28;20478;-84
2021/08/21 06:39:21;;;;;;;;;;;;;;;;;;4915843;28;19989;-90
2021/08/21 06:41:47;;;;;;;;;;;;;;;;;;4920679;28;19934;-88
2021/08/21 06:44:13;;;;;;;;;;;;;;;;;;4924385;28;19918;-89
2021/08/21 06:46:39;;;;;;;;;;;;;;;;;;4921363;28;19918;-88
2021/08/21 06:49:05;;;;;;;;;;;;;;;;;;4932768;28;19929;-88
2021/08/21 06:51:31;;;;;;;;;;;;;;;;;;4916521;28;20038;-88
2021/08/21 06:53:57;;;;;;;;;;;;;;;;;;4920702;28;19930;-88
2021/08/21 06:56:23;;;;;;;;;;;;;;;;;;4934769;28;19922;-91
2021/08/21 06:58:49;;;;;;;;;;;;;;;;;;4936019;28;19930;-89
2021/08/21 07:01:15;;;;;;;;;;;;;;;;;;4934698;28;19911;-88
2021/08/21 07:03:41;;;;;;;;;;;;;;;;;;4931252;28;19923;-86
2021/08/21 07:06:07;;;;;;;;;;;;;;;;;;4931915;28;19927;-86
2021/08/21 07:08:33;;;;;;;;;;;;;;;;;;4929962;28;19919;-87
2021/08/21 07:10:59;;;;;;;;;;;;;;;;;;4929689;28;19971;-88
2021/08/21 07:13:25;;;;;;;;;;;;;;;;;;4931283;28;19934;-87
2021/08/21 07:15:52;;;;;;;;;;;;;;;;;;4929877;28;19973;-88
2021/08/21 07:18:18;;;;;;;;;;;;;;;;;;4928390;28;19949;-87
2021/08/21 07:20:44;;;;;;;;;;;;;;;;;;4931434;28;19927;-87
2021/08/21 07:23:10;;;;;;;;;;;;;;;;;;4926451;28;19928;-87
2021/08/21 07:25:36;;;;;;;;;;;;;;;;;;4929015;28;20577;-86
2021/08/21 07:28:02;;;;;;;;;;;;;;;;;;4925279;28;19918;-87
2021/08/21 07:30:28;;;;;;;;;;;;;;;;;;4928101;28;20602;-87
2021/08/21 07:32:54;;;;;;;;;;;;;;;;;;4933332;28;20761;-87
2021/08/21 07:35:21;;;;;;;;;;;;;;;;;;4931680;28;19930;-90
2021/08/21 07:37:47;;;;;;;;;;;;;;;;;;4927165;28;19922;-90
2021/08/21 07:40:13;;;;;;;;;;;;;;;;;;4934627;28;19923;-91
2021/08/21 07:42:40;;;;;;;;;;;;;;;;;;4929946;28;19929;-88
2021/08/21 07:45:06;;;;;;;;;;;;;;;;;;4928626;28;19919;-86
2021/08/21 07:47:31;;;;;;;;;;;;;;;;;;4935705;28;20696;-89
2021/08/21 07:49:57;;;;;;;;;;;;;;;;;;4933333;28;19930;-88
2021/08/21 07:52:23;;;;;;;;;;;;;;;;;;4934065;28;20401;-89
2021/08/21 07:54:49;;;;;;;;;;;;;;;;;;4929955;28;19937;-89
2021/08/21 07:57:16;;;;;;;;;;;;;;;;;;4938187;28;19953;-89
2021/08/21 07:59:42;;;;;;;;;;;;;;;;;;4934876;28;19929;-90
2021/08/21 08:02:09;;;;;;;;;;;;;;;;;;4929023;28;19923;-88
2021/08/21 08:04:35;;;;;;;;;;;;;;;;;;4910194;28;19918;-88
2021/08/21 08:07:01;;;;;;;;;;;;;;;;;;4924699;28;20664;-88
2021/08/21 08:09:28;;;;;;;;;;;;;;;;;;4915815;28;19919;-88
2021/08/21 08:11:54;;;;;;;;;;;;;;;;;;4939283;28;19981;-91
2021/08/21 08:14:20;;;;;;;;;;;;;;;;;;4933359;28;19918;-88
2021/08/21 08:16:46;;;;;;;;;;;;;;;;;;4924305;28;20768;-91
2021/08/21 08:19:12;;;;;;;;;;;;;;;;;;4926970;28;19918;-91
2021/08/21 08:21:38;;;;;;;;;;;;;;;;;;4939745;28;19986;-90
2021/08/21 08:24:04;;;;;;;;;;;;;;;;;;4930191;28;19926;-87
2021/08/21 08:26:31;;;;;;;;;;;;;;;;;;4928158;28;19918;-86
2021/08/21 08:28:57;;;;;;;;;;;;;;;;;;4936589;28;19919;-89
2021/08/21 08:31:23;;;;;;;;;;;;;;;;;;4918306;28;19919;-86
2021/08/21 08:33:49;;;;;;;;;;;;;;;;;;4921128;28;20017;-88
2021/08/21 08:36:15;;;;;;;;;;;;;;;;;;4921076;28;20453;-91
2021/08/21 08:38:41;;;;;;;;;;;;;;;;;;4933410;28;19922;-88
2021/08/21 08:41:07;;;;;;;;;;;;;;;;;;4929670;28;19983;-88
2021/08/21 08:43:33;;;;;;;;;;;;;;;;;;4938427;28;19922;-90
2021/08/21 08:45:59;;;;;;;;;;;;;;;;;;4934810;28;19914;-91
2021/08/21 08:48:25;;;;;;;;;;;;;;;;;;4926692;28;19921;-90
2021/08/21 08:50:51;;;;;;;;;;;;;;;;;;4939321;28;20394;-90
2021/08/21 08:53:17;;;;;;;;;;;;;;;;;;4920603;28;19925;-91
2021/08/21 08:55:46;;;;;;;;;;;;;;;;;;4936036;28;19922;-90
2021/08/21 08:58:12;;;;;;;;;;;;;;;;;;4940517;28;19924;-89
2021/08/21 09:00:38;;;;;;;;;;;;;;;;;;4933976;28;19923;-91
2021/08/21 09:03:04;;;;;;;;;;;;;;;;;;4922004;28;19922;-90
2021/08/21 09:05:30;;;;;;;;;;;;;;;;;;4917779;28;20013;-83
2021/08/21 09:07:56;;;;;;;;;;;;;;;;;;4905305;28;19919;-82
2021/08/21 09:10:22;;;;;;;;;;;;;;;;;;4918893;28;20040;-82
2021/08/21 09:12:48;;;;;;;;;;;;;;;;;;4906890;28;20776;-83
2021/08/21 09:15:14;;;;;;;;;;;;;;;;;;4903350;28;19918;-82
2021/08/21 09:17:40;;;;;;;;;;;;;;;;;;4899469;28;20153;-82
2021/08/21 09:20:06;;;;;;;;;;;;;;;;;;4905790;28;19922;-81
2021/08/21 09:22:32;;;;;;;;;;;;;;;;;;4914538;28;19958;-82
2021/08/21 09:24:58;;;;;;;;;;;;;;;;;;4878280;29;20434;-82
2021/08/21 09:27:24;;;;;;;;;;;;;;;;;;4900684;28;20721;-82
2021/08/21 09:29:50;;;;;;;;;;;;;;;;;;4913530;28;19926;-82
2021/08/21 09:32:17;;;;;;;;;;;;;;;;;;4888902;28;19938;-83
2021/08/21 09:34:43;;;;;;;;;;;;;;;;;;4895935;28;20532;-81
2021/08/21 09:37:09;;;;;;;;;;;;;;;;;;4902850;28;20009;-82
2021/08/21 09:39:35;;;;;;;;;;;;;;;;;;4913222;28;19925;-82
2021/08/21 09:42:01;;;;;;;;;;;;;;;;;;4912320;28;19923;-82
2021/08/21 09:44:27;;;;;;;;;;;;;;;;;;4921950;28;19933;-81
2021/08/21 09:46:53;;;;;;;;;;;;;;;;;;4911162;28;19929;-83
2021/08/21 09:49:19;;;;;;;;;;;;;;;;;;4909109;28;19926;-82
2021/08/21 09:51:45;;;;;;;;;;;;;;;;;;4919912;28;20470;-82
2021/08/21 09:54:11;;;;;;;;;;;;;;;;;;4928233;28;19933;-82
2021/08/21 09:56:37;;;;;;;;;;;;;;;;;;4916309;28;20247;-82
2021/08/21 09:59:03;;;;;;;;;;;;;;;;;;4919847;28;20390;-82
2021/08/21 10:01:29;;;;;;;;;;;;;;;;;;4897557;28;19962;-83
2021/08/21 10:03:56;;;;;;;;;;;;;;;;;;4913831;28;19923;-84
2021/08/21 10:06:22;;;;;;;;;;;;;;;;;;4921157;28;19918;-82
2021/08/21 10:08:49;;;;;;;;;;;;;;;;;;4898121;28;19954;-83
2021/08/21 10:11:15;;;;;;;;;;;;;;;;;;4922235;28;19922;-84
2021/08/21 10:13:41;;;;;;;;;;;;;;;;;;4923316;28;20033;-82
2021/08/21 10:16:07;;;;;;;;;;;;;;;;;;4919092;28;19966;-83
2021/08/21 10:18:33;;;;;;;;;;;;;;;;;;4897439;28;19941;-82
2021/08/21 10:20:59;;;;;;;;;;;;;;;;;;4906559;29;19918;-82
2021/08/21 10:23:28;;;;;;;;;;;;;;;;;;4926326;28;19970;-82
2021/08/21 10:25:54;;;;;;;;;;;;;;;;;;4912100;28;20013;-82
2021/08/21 10:28:20;;;;;;;;;;;;;;;;;;4905223;28;19949;-83
2021/08/21 10:30:46;;;;;;;;;;;;;;;;;;4933949;28;19922;-83
2021/08/21 10:33:12;;;;;;;;;;;;;;;;;;4944072;28;19929;-83
2021/08/21 10:35:38;;;;;;;;;;;;;;;;;;4930515;28;19919;-84
2021/08/21 10:38:04;;;;;;;;;;;;;;;;;;4930590;28;19933;-83
2021/08/21 10:40:30;;;;;;;;;;;;;;;;;;4915647;28;19929;-84
2021/08/21 10:42:56;;;;;;;;;;;;;;;;;;4926364;28;19929;-82
2021/08/21 10:45:22;;;;;;;;;;;;;;;;;;4910307;28;20060;-83
2021/08/21 10:47:48;;;;;;;;;;;;;;;;;;4908276;28;19918;-83
2021/08/21 10:50:14;;;;;;;;;;;;;;;;;;4922807;28;19918;-84
2021/08/21 10:52:40;;;;;;;;;;;;;;;;;;4918212;28;19922;-84
2021/08/21 10:55:06;;;;;;;;;;;;;;;;;;4924793;28;19985;-81
2021/08/21 10:57:32;;;;;;;;;;;;;;;;;;4919270;28;19918;-83
2021/08/21 10:59:58;;;;;;;;;;;;;;;;;;4924511;28;20013;-83
2021/08/21 11:02:24;;;;;;;;;;;;;;;;;;4921069;28;19929;-82
2021/08/21 11:04:50;;;;;;;;;;;;;;;;;;4911938;28;19986;-83
2021/08/21 11:07:16;;;;;;;;;;;;;;;;;;4922062;28;19922;-83
2021/08/21 11:09:42;;;;;;;;;;;;;;;;;;4918606;28;19923;-83
2021/08/21 11:12:11;;;;;;;;;;;;;;;;;;4927272;28;19929;-82
2021/08/21 11:14:40;;;;;;;;;;;;;;;;;;4903339;28;19919;-83
2021/08/21 11:17:11;;;;;;;;;;;;;;;;;;4912998;28;19970;-82
2021/08/21 11:19:37;;;;;;;;;;;;;;;;;;4899511;28;19922;-82
2021/08/21 11:22:03;;;;;;;;;;;;;;;;;;4925850;28;19992;-81
2021/08/21 11:24:30;;;;;;;;;;;;;;;;;;4894611;28;20575;-85
2021/08/21 11:26:58;;;;;;;;;;;;;;;;;;4912116;29;19930;-83
2021/08/21 11:29:27;;;;;;;;;;;;;;;;;;4905913;28;19925;-83
2021/08/21 11:31:53;;;;;;;;;;;;;;;;;;4909023;28;20745;-87
2021/08/21 11:34:20;;;;;;;;;;;;;;;;;;4913452;28;19978;-87
2021/08/21 11:36:46;;;;;;;;;;;;;;;;;;4904757;28;20921;-87
2021/08/21 11:39:12;;;;;;;;;;;;;;;;;;4930020;28;19937;-87
2021/08/21 11:41:38;;;;;;;;;;;;;;;;;;4907545;28;20414;-87
2021/08/21 11:44:04;;;;;;;;;;;;;;;;;;4914189;28;19923;-89
2021/08/21 11:46:30;;;;;;;;;;;;;;;;;;4903360;28;19919;-88
2021/08/21 11:48:56;;;;;;;;;;;;;;;;;;4915528;28;19957;-88
2021/08/21 11:51:22;;;;;;;;;;;;;;;;;;4907566;28;20052;-88
2021/08/21 11:53:48;;;;;;;;;;;;;;;;;;4911035;28;20034;-89
2021/08/21 11:56:14;;;;;;;;;;;;;;;;;;4933124;28;19918;-88
2021/08/21 11:58:46;;;;;;;;;;;;;;;;;;4924575;28;19961;-87
2021/08/21 12:01:14;;;;;;;;;;;;;;;;;;4924568;28;19926;-87
2021/08/21 12:06:12;;;;;;;;;;;;;;;;;;4929785;28;19929;-88
2021/08/21 12:08:38;;;;;;;;;;;;;;;;;;4918349;28;19922;-88
2021/08/21 12:11:04;;;;;;;;;;;;;;;;;;4937590;28;20398;-87
2021/08/21 12:13:30;;;;;;;;;;;;;;;;;;4922747;28;19941;-88
2021/08/21 12:15:56;;;;;;;;;;;;;;;;;;4930106;28;19918;-87
2021/08/21 12:18:22;;;;;;;;;;;;;;;;;;4932048;28;20543;-87
2021/08/21 12:20:48;;;;;;;;;;;;;;;;;;4938013;28;20006;-86
2021/08/21 12:23:14;;;;;;;;;;;;;;;;;;4938678;28;19922;-86
2021/08/21 12:25:40;;;;;;;;;;;;;;;;;;4929630;28;19918;-87
2021/08/21 12:28:06;;;;;;;;;;;;;;;;;;4932296;28;19919;-83
2021/08/21 12:30:32;;;;;;;;;;;;;;;;;;4922551;28;20370;-87
2021/08/21 12:32:58;;;;;;;;;;;;;;;;;;4933574;28;19926;-87
2021/08/21 12:38:21;;;;;;;;;;;;;;;;;;4921278;28;19918;-85
2021/08/21 12:40:50;;;;;;;;;;;;;;;;;;4915282;28;20333;-84
2021/08/21 12:43:17;;;;;;;;;;;;;;;;;;4926186;28;19929;-82
2021/08/21 12:45:43;;;;;;;;;;;;;;;;;;4924246;28;19922;-81
2021/08/21 12:48:09;;;;;;;;;;;;;;;;;;4923137;28;20367;-82
2021/08/21 12:50:35;;;;;;;;;;;;;;;;;;4920800;28;19999;-82
2021/08/21 12:53:01;;;;;;;;;;;;;;;;;;4930848;28;20723;-81
2021/08/21 12:55:28;;;;;;;;;;;;;;;;;;4923989;28;19931;-83
2021/08/21 12:57:54;;;;;;;;;;;;;;;;;;4930615;28;19918;-89
2021/08/21 13:00:20;;;;;;;;;;;;;;;;;;4930908;28;19948;-89
2021/08/21 13:02:46;;;;;;;;;;;;;;;;;;4931345;28;19926;-87
2021/08/21 13:05:12;;;;;;;;;;;;;;;;;;4932917;28;20288;-88
2021/08/21 13:07:38;;;;;;;;;;;;;;;;;;4923472;28;19973;-84
2021/08/21 13:10:04;;;;;;;;;;;;;;;;;;4923529;28;19922;-84
2021/08/21 13:12:30;;;;;;;;;;;;;;;;;;4927196;28;19925;-84
2021/08/21 13:14:56;;;;;;;;;;;;;;;;;;4921754;28;19922;-83
2021/08/21 13:17:22;;;;;;;;;;;;;;;;;;4932453;28;20013;-84
2021/08/21 13:19:48;;;;;;;;;;;;;;;;;;4931178;28;20536;-85
2021/08/21 13:22:14;;;;;;;;;;;;;;;;;;4931209;28;19927;-84
2021/08/21 13:24:40;;;;;;;;;;;;;;;;;;4925791;28;20363;-82
2021/08/21 13:27:06;;;;;;;;;;;;;;;;;;4919190;28;19961;-81
2021/08/21 13:29:32;;;;;;;;;;;;;;;;;;4924170;28;20358;-81
2021/08/21 13:31:58;;;;;;;;;;;;;;;;;;4923515;28;19941;-81
2021/08/21 13:34:28;;;;;;;;;;;;;;;;;;4928879;28;19918;-88
2021/08/21 13:36:57;;;;;;;;;;;;;;;;;;4931464;28;19946;-88
2021/08/21 13:39:26;;;;;;;;;;;;;;;;;;4938023;28;19982;-87
2021/08/21 13:47:33;;;;;;;;;;;;;;;;;;4907405;28;19919;-90
2021/08/21 13:50:02;;;;;;;;;;;;;;;;;;4899859;29;19930;-89
2021/08/21 13:52:38;;;;;;;;;;;;;;;;;;;;;
2021/08/21 13:55:15;;;;;;;;;;;;;;;;;;;;;
2021/08/21 14:00:28;;;;;;;;;;;;;;;;;;4896361;29;20476;-88
2021/08/21 14:03:03;;;;;;;;;;;;;;;;;;4898934;29;20463;-90
2021/08/21 14:05:43;;;;;;;;;;;;;;;;;;4884852;29;19995;-90
2021/08/21 14:08:13;;;;;;;;;;;;;;;;;;4894745;29;20054;-90
2021/08/21 14:10:39;;;;;;;;;;;;;;;;;;4877126;29;19918;-84
2021/08/21 14:13:05;;;;;;;;;;;;;;;;;;4872706;29;19919;-83
2021/08/21 14:15:31;;;;;;;;;;;;;;;;;;4872529;29;19927;-83
2021/08/21 14:17:57;;;;;;;;;;;;;;;;;;4875046;29;19931;-85
2021/08/21 14:20:23;;;;;;;;;;;;;;;;;;4892443;29;19919;-84
2021/08/21 14:22:49;;;;;;;;;;;;;;;;;;4870532;29;19923;-80
2021/08/21 14:25:16;;;;;;;;;;;;;;;;;;4894292;29;19965;-83
2021/08/21 14:27:42;;;;;;;;;;;;;;;;;;4892628;29;20037;-84
2021/08/21 14:30:09;;;;;;;;;;;;;;;;;;4887728;29;19954;-83
2021/08/21 14:32:36;;;;;;;;;;;;;;;;;;4877480;29;19927;-86
2021/08/21 14:35:11;;;;;;;;;;;;;;;;;;4862944;29;19919;-86
2021/08/21 14:37:37;;;;;;;;;;;;;;;;;;4907899;28;19925;-87
2021/08/21 14:40:03;;;;;;;;;;;;;;;;;;4933447;28;19918;-92
2021/08/21 14:42:30;;;;;;;;;;;;;;;;;;4932284;28;19929;-90
2021/08/21 14:45:00;;;;;;;;;;;;;;;;;;4937104;28;19915;-90
2021/08/21 14:50:15;;;;;;;;;;;;;;;;;;4943081;28;19918;-91
2021/08/21 15:01:11;;;;;;;;;;;;;;;;;;4849063;29;19927;-82
2021/08/21 15:03:37;;;;;;;;;;;;;;;;;;4831995;29;19924;-82
2021/08/21 15:06:06;;;;;;;;;;;;;;;;;;4852259;29;19919;-84
2021/08/21 15:08:35;;;;;;;;;;;;;;;;;;4846844;29;19927;-81
2021/08/21 15:11:02;;;;;;;;;;;;;;;;;;4846068;29;20890;-83
2021/08/21 15:13:29;;;;;;;;;;;;;;;;;;4843592;29;20410;-82
2021/08/21 15:15:58;;;;;;;;;;;;;;;;;;4848043;29;20014;-83
2021/08/21 15:18:24;;;;;;;;;;;;;;;;;;4827207;29;19924;-84
2021/08/21 15:21:00;;;;;;;;;;;;;;;;;;4828757;29;19920;-84
2021/08/21 15:23:26;;;;;;;;;;;;;;;;;;4840948;29;19990;-84
2021/08/21 15:25:52;;;;;;;;;;;;;;;;;;4829983;29;19931;-83
2021/08/21 15:28:21;;;;;;;;;;;;;;;;;;4829648;29;19923;-84
2021/08/21 15:30:47;;;;;;;;;;;;;;;;;;4846253;29;20100;-84
2021/08/21 15:33:13;;;;;;;;;;;;;;;;;;4837831;29;20027;-86
2021/08/21 15:35:39;;;;;;;;;;;;;;;;;;4888644;28;19954;-86
2021/08/21 15:38:05;;;;;;;;;;;;;;;;;;4922038;28;19919;-85
2021/08/21 15:40:31;;;;;;;;;;;;;;;;;;4917341;28;19919;-85
2021/08/21 15:42:57;;;;;;;;;;;;;;;;;;4920415;28;20398;-86
2021/08/21 15:45:23;;;;;;;;;;;;;;;;;;4922862;28;19918;-86
2021/08/21 15:47:49;;;;;;;;;;;;;;;;;;4920315;28;19929;-86
2021/08/21 15:50:15;;;;;;;;;;;;;;;;;;4923264;28;20341;-87
2021/08/21 15:52:44;;;;;;;;;;;;;;;;;;4915735;28;21345;-88
2021/08/21 15:55:10;;;;;;;;;;;;;;;;;;4919278;28;20837;-88
2021/08/21 15:57:36;;;;;;;;;;;;;;;;;;4914429;28;20358;-87
2021/08/21 16:00:02;;;;;;;;;;;;;;;;;;4922256;28;19923;-82
2021/08/21 16:02:28;;;;;;;;;;;;;;;;;;4911579;28;19938;-81
2021/08/21 16:04:54;;;;;;;;;;;;;;;;;;4919235;28;19922;-82
2021/08/21 16:07:20;;;;;;;;;;;;;;;;;;4912711;28;19918;-82
2021/08/21 16:09:48;;;;;;;;;;;;;;;;;;4908460;28;19927;-81
2021/08/21 16:12:14;;;;;;;;;;;;;;;;;;4916992;28;20314;-82
2021/08/21 16:14:40;;;;;;;;;;;;;;;;;;4913794;28;19931;-84
2021/08/21 16:17:06;;;;;;;;;;;;;;;;;;4924154;28;19918;-82
2021/08/21 16:19:32;;;;;;;;;;;;;;;;;;4915022;28;19989;-83
2021/08/21 16:21:58;;;;;;;;;;;;;;;;;;4925399;28;20037;-83
2021/08/21 16:24:24;;;;;;;;;;;;;;;;;;4919203;28;20453;-84
2021/08/21 16:26:50;;;;;;;;;;;;;;;;;;4920388;28;19918;-82
2021/08/21 16:29:16;;;;;;;;;;;;;;;;;;4915163;28;20021;-83
2021/08/21 16:31:42;;;;;;;;;;;;;;;;;;4914252;28;20327;-83
2021/08/21 16:34:08;;;;;;;;;;;;;;;;;;4922619;28;19919;-81
2021/08/21 16:36:34;;;;;;;;;;;;;;;;;;4914326;28;20665;-82
2021/08/21 16:39:00;;;;;;;;;;;;;;;;;;4920073;28;19950;-83
2021/08/21 16:41:34;;;;;;;;;;;;;;;;;;4922377;28;19957;-87
2021/08/21 16:44:00;;;;;;;;;;;;;;;;;;4926970;28;19953;-90
2021/08/21 16:46:26;;;;;;;;;;;;;;;;;;4933871;28;19972;-86
2021/08/21 16:48:52;;;;;;;;;;;;;;;;;;4929223;28;19918;-86
2021/08/21 16:51:18;;;;;;;;;;;;;;;;;;4933151;28;19930;-87
2021/08/21 16:53:44;;;;;;;;;;;;;;;;;;4931844;28;20625;-86
2021/08/21 16:56:10;;;;;;;;;;;;;;;;;;4932995;28;19933;-86
2021/08/21 16:58:36;;;;;;;;;;;;;;;;;;4933792;28;19918;-87
2021/08/21 17:01:02;;;;;;;;;;;;;;;;;;4935846;28;19979;-86
2021/08/21 17:03:28;;;;;;;;;;;;;;;;;;4936636;28;19930;-87
2021/08/21 17:05:54;;;;;;;;;;;;;;;;;;4928798;28;19922;-86